sensor_id;sensor_type;location;lat;lon;timestamp;P1;durP1;ratioP1;P2;durP2;ratioP2
47021;SDS011;32779;52.264;6.154;2023-02-28T00:02:20;8.07;;;3.25;;
47021;SDS011;32779;52.264;6.154;2023-02-28T00:04:45;9.93;;;3.63;;
47021;SDS011;32779;52.264;6.154;2023-02-28T00:07:18;9.00;;;3.58;;
47021;SDS011;32779;52.264;6.154;2023-02-28T00:12:09;8.68;;;3.45;;
47021;SDS011;32779;52.264;6.154;2023-02-28T00:14:35;9.05;;;3.90;;
47021;SDS011;32779;52.264;6.154;2023-02-28T00:17:01;6.28;;;3.20;;
47021;SDS011;32779;52.264;6.154;2023-02-28T00:19:27;8.85;;;3.58;;
47021;SDS011;32779;52.264;6.154;2023-02-28T00:21:52;7.70;;;3.72;;
47021;SDS011;32779;52.264;6.154;2023-02-28T00:24:18;9.10;;;3.77;;
47021;SDS011;32779;52.264;6.154;2023-02-28T00:26:44;12.95;;;3.83;;
47021;SDS011;32779;52.264;6.154;2023-02-28T00:29:09;8.98;;;3.53;;
47021;SDS011;32779;52.264;6.154;2023-02-28T00:31:35;8.40;;;3.73;;
47021;SDS011;32779;52.264;6.154;2023-02-28T00:34:00;13.40;;;4.07;;
47021;SDS011;32779;52.264;6.154;2023-02-28T00:36:26;7.78;;;3.55;;
47021;SDS011;32779;52.264;6.154;2023-02-28T00:38:52;9.52;;;3.63;;
47021;SDS011;32779;52.264;6.154;2023-02-28T00:41:17;10.20;;;3.60;;
47021;SDS011;32779;52.264;6.154;2023-02-28T00:43:43;12.65;;;5.28;;
47021;SDS011;32779;52.264;6.154;2023-02-28T00:46:09;7.97;;;4.03;;
47021;SDS011;32779;52.264;6.154;2023-02-28T00:48:35;8.93;;;3.58;;
47021;SDS011;32779;52.264;6.154;2023-02-28T00:53:26;9.80;;;4.20;;
47021;SDS011;32779;52.264;6.154;2023-02-28T00:55:53;8.07;;;3.40;;
47021;SDS011;32779;52.264;6.154;2023-02-28T00:58:18;10.18;;;3.65;;
47021;SDS011;32779;52.264;6.154;2023-02-28T01:00:44;5.80;;;3.25;;
47021;SDS011;32779;52.264;6.154;2023-02-28T01:03:14;7.50;;;3.17;;
47021;SDS011;32779;52.264;6.154;2023-02-28T01:05:43;6.53;;;3.28;;
47021;SDS011;32779;52.264;6.154;2023-02-28T01:08:09;9.65;;;3.75;;
47021;SDS011;32779;52.264;6.154;2023-02-28T01:10:34;7.93;;;3.90;;
47021;SDS011;32779;52.264;6.154;2023-02-28T01:13:01;7.85;;;3.63;;
47021;SDS011;32779;52.264;6.154;2023-02-28T01:15:27;7.55;;;3.25;;
47021;SDS011;32779;52.264;6.154;2023-02-28T01:17:53;9.13;;;4.05;;
47021;SDS011;32779;52.264;6.154;2023-02-28T01:20:19;8.65;;;3.63;;
47021;SDS011;32779;52.264;6.154;2023-02-28T01:22:45;6.55;;;3.42;;
47021;SDS011;32779;52.264;6.154;2023-02-28T01:25:11;5.90;;;3.03;;
47021;SDS011;32779;52.264;6.154;2023-02-28T01:27:37;8.65;;;3.17;;
47021;SDS011;32779;52.264;6.154;2023-02-28T01:30:04;7.20;;;3.53;;
47021;SDS011;32779;52.264;6.154;2023-02-28T01:32:31;10.60;;;3.47;;
47021;SDS011;32779;52.264;6.154;2023-02-28T01:34:57;7.78;;;3.65;;
47021;SDS011;32779;52.264;6.154;2023-02-28T01:37:22;9.35;;;3.42;;
47021;SDS011;32779;52.264;6.154;2023-02-28T01:39:48;7.20;;;3.70;;
47021;SDS011;32779;52.264;6.154;2023-02-28T01:42:13;8.30;;;3.70;;
47021;SDS011;32779;52.264;6.154;2023-02-28T01:44:57;10.32;;;3.45;;
47021;SDS011;32779;52.264;6.154;2023-02-28T01:47:30;10.23;;;4.07;;
47021;SDS011;32779;52.264;6.154;2023-02-28T01:49:59;6.25;;;3.40;;
47021;SDS011;32779;52.264;6.154;2023-02-28T01:52:29;8.88;;;3.55;;
47021;SDS011;32779;52.264;6.154;2023-02-28T01:54:56;7.53;;;3.75;;
47021;SDS011;32779;52.264;6.154;2023-02-28T01:57:26;7.13;;;3.55;;
47021;SDS011;32779;52.264;6.154;2023-02-28T02:00:00;12.25;;;3.75;;
47021;SDS011;32779;52.264;6.154;2023-02-28T02:02:29;7.93;;;3.20;;
47021;SDS011;32779;52.264;6.154;2023-02-28T02:07:33;6.60;;;3.08;;
47021;SDS011;32779;52.264;6.154;2023-02-28T02:10:16;8.00;;;3.53;;
47021;SDS011;32779;52.264;6.154;2023-02-28T02:15:48;8.18;;;3.65;;
47021;SDS011;32779;52.264;6.154;2023-02-28T02:23:58;10.25;;;3.88;;
47021;SDS011;32779;52.264;6.154;2023-02-28T02:32:08;7.57;;;3.53;;
47021;SDS011;32779;52.264;6.154;2023-02-28T02:37:49;8.35;;;3.60;;
47021;SDS011;32779;52.264;6.154;2023-02-28T02:41:04;9.38;;;3.95;;
47021;SDS011;32779;52.264;6.154;2023-02-28T02:43:35;8.65;;;3.67;;
47021;SDS011;32779;52.264;6.154;2023-02-28T02:46:20;6.07;;;3.63;;
47021;SDS011;32779;52.264;6.154;2023-02-28T02:48:48;5.47;;;3.55;;
47021;SDS011;32779;52.264;6.154;2023-02-28T02:51:18;8.43;;;3.65;;
47021;SDS011;32779;52.264;6.154;2023-02-28T02:53:48;10.45;;;4.18;;
47021;SDS011;32779;52.264;6.154;2023-02-28T02:56:18;6.55;;;3.83;;
47021;SDS011;32779;52.264;6.154;2023-02-28T02:58:47;8.32;;;4.20;;
47021;SDS011;32779;52.264;6.154;2023-02-28T03:01:16;8.63;;;4.20;;
47021;SDS011;32779;52.264;6.154;2023-02-28T03:06:25;9.38;;;3.40;;
47021;SDS011;32779;52.264;6.154;2023-02-28T03:08:51;7.82;;;4.15;;
47021;SDS011;32779;52.264;6.154;2023-02-28T03:11:17;6.53;;;3.70;;
47021;SDS011;32779;52.264;6.154;2023-02-28T03:18:58;8.75;;;4.18;;
47021;SDS011;32779;52.264;6.154;2023-02-28T03:24:11;6.20;;;3.88;;
47021;SDS011;32779;52.264;6.154;2023-02-28T03:26:45;7.20;;;3.70;;
47021;SDS011;32779;52.264;6.154;2023-02-28T03:35:18;13.43;;;4.47;;
47021;SDS011;32779;52.264;6.154;2023-02-28T03:37:48;8.65;;;4.07;;
47021;SDS011;32779;52.264;6.154;2023-02-28T03:40:18;6.70;;;3.75;;
47021;SDS011;32779;52.264;6.154;2023-02-28T03:42:48;8.57;;;3.47;;
47021;SDS011;32779;52.264;6.154;2023-02-28T03:45:18;8.10;;;3.55;;
47021;SDS011;32779;52.264;6.154;2023-02-28T03:47:52;5.57;;;3.35;;
47021;SDS011;32779;52.264;6.154;2023-02-28T03:50:27;7.65;;;3.30;;
47021;SDS011;32779;52.264;6.154;2023-02-28T03:53:04;9.63;;;4.03;;
47021;SDS011;32779;52.264;6.154;2023-02-28T03:55:48;8.43;;;3.78;;
47021;SDS011;32779;52.264;6.154;2023-02-28T04:01:22;7.45;;;3.38;;
47021;SDS011;32779;52.264;6.154;2023-02-28T04:03:55;6.50;;;3.40;;
47021;SDS011;32779;52.264;6.154;2023-02-28T04:06:21;7.97;;;3.15;;
47021;SDS011;32779;52.264;6.154;2023-02-28T04:08:48;5.28;;;3.00;;
47021;SDS011;32779;52.264;6.154;2023-02-28T04:13:57;5.05;;;3.08;;
47021;SDS011;32779;52.264;6.154;2023-02-28T04:16:23;7.10;;;2.53;;
47021;SDS011;32779;52.264;6.154;2023-02-28T04:21:15;6.07;;;2.67;;
47021;SDS011;32779;52.264;6.154;2023-02-28T04:23:40;8.30;;;2.80;;
47021;SDS011;32779;52.264;6.154;2023-02-28T04:26:06;5.15;;;2.53;;
47021;SDS011;32779;52.264;6.154;2023-02-28T04:28:32;4.93;;;2.63;;
47021;SDS011;32779;52.264;6.154;2023-02-28T04:30:59;4.43;;;2.72;;
47021;SDS011;32779;52.264;6.154;2023-02-28T04:33:28;4.30;;;3.05;;
47021;SDS011;32779;52.264;6.154;2023-02-28T04:36:02;7.47;;;3.38;;
47021;SDS011;32779;52.264;6.154;2023-02-28T04:38:33;6.50;;;3.08;;
47021;SDS011;32779;52.264;6.154;2023-02-28T04:41:02;6.72;;;3.80;;
47021;SDS011;32779;52.264;6.154;2023-02-28T04:43:29;4.93;;;3.10;;
47021;SDS011;32779;52.264;6.154;2023-02-28T04:45:56;7.13;;;3.20;;
47021;SDS011;32779;52.264;6.154;2023-02-28T04:48:23;5.50;;;2.88;;
47021;SDS011;32779;52.264;6.154;2023-02-28T04:50:50;5.65;;;3.17;;
47021;SDS011;32779;52.264;6.154;2023-02-28T04:55:42;6.40;;;3.25;;
47021;SDS011;32779;52.264;6.154;2023-02-28T04:58:07;6.03;;;3.30;;
47021;SDS011;32779;52.264;6.154;2023-02-28T05:00:33;8.13;;;3.63;;
47021;SDS011;32779;52.264;6.154;2023-02-28T05:02:59;4.20;;;2.97;;
47021;SDS011;32779;52.264;6.154;2023-02-28T05:05:24;4.90;;;3.05;;
47021;SDS011;32779;52.264;6.154;2023-02-28T05:07:50;7.63;;;3.10;;
47021;SDS011;32779;52.264;6.154;2023-02-28T05:10:15;4.70;;;2.80;;
47021;SDS011;32779;52.264;6.154;2023-02-28T05:12:41;4.90;;;2.80;;
47021;SDS011;32779;52.264;6.154;2023-02-28T05:15:08;5.72;;;2.80;;
47021;SDS011;32779;52.264;6.154;2023-02-28T05:17:37;3.85;;;2.85;;
47021;SDS011;32779;52.264;6.154;2023-02-28T05:20:03;7.10;;;3.53;;
47021;SDS011;32779;52.264;6.154;2023-02-28T05:22:30;6.43;;;3.00;;
47021;SDS011;32779;52.264;6.154;2023-02-28T05:24:56;5.10;;;2.75;;
47021;SDS011;32779;52.264;6.154;2023-02-28T05:27:22;5.18;;;3.00;;
47021;SDS011;32779;52.264;6.154;2023-02-28T05:29:48;6.82;;;3.30;;
47021;SDS011;32779;52.264;6.154;2023-02-28T05:32:14;3.90;;;3.10;;
47021;SDS011;32779;52.264;6.154;2023-02-28T05:34:40;7.03;;;3.42;;
47021;SDS011;32779;52.264;6.154;2023-02-28T05:37:07;4.60;;;2.80;;
47021;SDS011;32779;52.264;6.154;2023-02-28T05:39:37;6.32;;;3.08;;
47021;SDS011;32779;52.264;6.154;2023-02-28T05:44:29;5.40;;;3.00;;
47021;SDS011;32779;52.264;6.154;2023-02-28T05:46:55;5.25;;;2.80;;
47021;SDS011;32779;52.264;6.154;2023-02-28T05:49:20;4.57;;;2.92;;
47021;SDS011;32779;52.264;6.154;2023-02-28T05:51:46;5.65;;;3.53;;
47021;SDS011;32779;52.264;6.154;2023-02-28T05:54:12;8.05;;;3.40;;
47021;SDS011;32779;52.264;6.154;2023-02-28T05:56:38;6.65;;;3.50;;
47021;SDS011;32779;52.264;6.154;2023-02-28T05:59:09;7.35;;;3.20;;
47021;SDS011;32779;52.264;6.154;2023-02-28T06:01:36;5.60;;;3.30;;
47021;SDS011;32779;52.264;6.154;2023-02-28T06:04:04;5.45;;;3.00;;
47021;SDS011;32779;52.264;6.154;2023-02-28T06:06:32;8.00;;;3.20;;
47021;SDS011;32779;52.264;6.154;2023-02-28T06:08:59;7.32;;;3.47;;
47021;SDS011;32779;52.264;6.154;2023-02-28T06:11:25;5.90;;;2.97;;
47021;SDS011;32779;52.264;6.154;2023-02-28T06:13:56;4.68;;;3.08;;
47021;SDS011;32779;52.264;6.154;2023-02-28T06:16:24;5.95;;;3.60;;
47021;SDS011;32779;52.264;6.154;2023-02-28T06:18:50;6.95;;;3.53;;
47021;SDS011;32779;52.264;6.154;2023-02-28T06:21:17;6.05;;;3.25;;
47021;SDS011;32779;52.264;6.154;2023-02-28T06:23:43;4.70;;;3.13;;
47021;SDS011;32779;52.264;6.154;2023-02-28T06:26:08;5.38;;;3.38;;
47021;SDS011;32779;52.264;6.154;2023-02-28T06:28:34;9.35;;;3.35;;
47021;SDS011;32779;52.264;6.154;2023-02-28T06:31:05;5.30;;;3.35;;
47021;SDS011;32779;52.264;6.154;2023-02-28T06:33:35;7.20;;;3.10;;
47021;SDS011;32779;52.264;6.154;2023-02-28T06:36:02;6.45;;;3.13;;
47021;SDS011;32779;52.264;6.154;2023-02-28T06:38:28;5.03;;;3.33;;
47021;SDS011;32779;52.264;6.154;2023-02-28T06:40:57;3.95;;;3.05;;
47021;SDS011;32779;52.264;6.154;2023-02-28T06:43:24;6.03;;;3.20;;
47021;SDS011;32779;52.264;6.154;2023-02-28T06:45:54;5.53;;;3.70;;
47021;SDS011;32779;52.264;6.154;2023-02-28T06:48:20;4.95;;;3.22;;
47021;SDS011;32779;52.264;6.154;2023-02-28T06:50:46;7.63;;;3.50;;
47021;SDS011;32779;52.264;6.154;2023-02-28T06:53:12;5.05;;;3.30;;
47021;SDS011;32779;52.264;6.154;2023-02-28T06:55:38;5.60;;;3.40;;
47021;SDS011;32779;52.264;6.154;2023-02-28T06:58:04;6.10;;;3.20;;
47021;SDS011;32779;52.264;6.154;2023-02-28T07:00:40;4.25;;;3.10;;
47021;SDS011;32779;52.264;6.154;2023-02-28T07:03:07;4.85;;;2.92;;
47021;SDS011;32779;52.264;6.154;2023-02-28T07:05:34;6.57;;;3.15;;
47021;SDS011;32779;52.264;6.154;2023-02-28T07:08:00;8.27;;;3.90;;
47021;SDS011;32779;52.264;6.154;2023-02-28T07:12:52;6.50;;;3.38;;
47021;SDS011;32779;52.264;6.154;2023-02-28T07:15:17;7.57;;;4.35;;
47021;SDS011;32779;52.264;6.154;2023-02-28T07:17:43;6.47;;;3.25;;
47021;SDS011;32779;52.264;6.154;2023-02-28T07:20:08;6.72;;;3.40;;
47021;SDS011;32779;52.264;6.154;2023-02-28T07:22:34;5.07;;;3.05;;
47021;SDS011;32779;52.264;6.154;2023-02-28T07:25:00;6.35;;;3.10;;
47021;SDS011;32779;52.264;6.154;2023-02-28T07:27:26;7.78;;;3.63;;
47021;SDS011;32779;52.264;6.154;2023-02-28T07:29:52;8.70;;;3.55;;
47021;SDS011;32779;52.264;6.154;2023-02-28T07:34:44;7.55;;;2.92;;
47021;SDS011;32779;52.264;6.154;2023-02-28T07:37:09;4.47;;;2.97;;
47021;SDS011;32779;52.264;6.154;2023-02-28T07:39:35;5.32;;;3.50;;
47021;SDS011;32779;52.264;6.154;2023-02-28T07:42:04;8.57;;;2.97;;
47021;SDS011;32779;52.264;6.154;2023-02-28T07:44:31;5.95;;;3.38;;
47021;SDS011;32779;52.264;6.154;2023-02-28T07:46:57;10.48;;;3.40;;
47021;SDS011;32779;52.264;6.154;2023-02-28T07:49:22;5.72;;;2.65;;
47021;SDS011;32779;52.264;6.154;2023-02-28T07:51:48;5.28;;;3.05;;
47021;SDS011;32779;52.264;6.154;2023-02-28T07:54:14;5.15;;;3.22;;
47021;SDS011;32779;52.264;6.154;2023-02-28T07:56:39;7.53;;;3.35;;
47021;SDS011;32779;52.264;6.154;2023-02-28T07:59:05;5.05;;;3.42;;
47021;SDS011;32779;52.264;6.154;2023-02-28T08:01:30;7.00;;;3.95;;
47021;SDS011;32779;52.264;6.154;2023-02-28T08:03:56;11.25;;;3.08;;
47021;SDS011;32779;52.264;6.154;2023-02-28T08:06:22;9.80;;;4.30;;
47021;SDS011;32779;52.264;6.154;2023-02-28T08:08:49;5.10;;;3.00;;
47021;SDS011;32779;52.264;6.154;2023-02-28T08:11:15;6.45;;;3.20;;
47021;SDS011;32779;52.264;6.154;2023-02-28T08:16:08;10.10;;;2.80;;
47021;SDS011;32779;52.264;6.154;2023-02-28T08:18:34;6.10;;;3.30;;
47021;SDS011;32779;52.264;6.154;2023-02-28T08:21:05;10.05;;;3.10;;
47021;SDS011;32779;52.264;6.154;2023-02-28T08:23:32;6.18;;;2.72;;
47021;SDS011;32779;52.264;6.154;2023-02-28T08:25:58;5.22;;;2.80;;
47021;SDS011;32779;52.264;6.154;2023-02-28T08:28:24;6.15;;;2.47;;
47021;SDS011;32779;52.264;6.154;2023-02-28T08:30:50;5.50;;;2.78;;
47021;SDS011;32779;52.264;6.154;2023-02-28T08:33:15;4.95;;;2.72;;
47021;SDS011;32779;52.264;6.154;2023-02-28T08:35:41;4.40;;;2.75;;
47021;SDS011;32779;52.264;6.154;2023-02-28T08:38:07;5.20;;;2.40;;
47021;SDS011;32779;52.264;6.154;2023-02-28T08:40:32;4.38;;;2.40;;
47021;SDS011;32779;52.264;6.154;2023-02-28T08:42:58;4.93;;;2.15;;
47021;SDS011;32779;52.264;6.154;2023-02-28T08:45:24;4.60;;;2.30;;
47021;SDS011;32779;52.264;6.154;2023-02-28T08:47:50;3.90;;;2.30;;
47021;SDS011;32779;52.264;6.154;2023-02-28T08:50:17;1.98;;;1.13;;
47021;SDS011;32779;52.264;6.154;2023-02-28T08:52:43;4.95;;;1.90;;
47021;SDS011;32779;52.264;6.154;2023-02-28T08:55:09;5.03;;;1.92;;
47021;SDS011;32779;52.264;6.154;2023-02-28T08:57:38;2.63;;;1.45;;
47021;SDS011;32779;52.264;6.154;2023-02-28T09:00:04;6.22;;;1.38;;
47021;SDS011;32779;52.264;6.154;2023-02-28T09:04:56;2.20;;;1.67;;
47021;SDS011;32779;52.264;6.154;2023-02-28T09:07:23;3.33;;;1.30;;
47021;SDS011;32779;52.264;6.154;2023-02-28T09:09:49;5.03;;;1.70;;
47021;SDS011;32779;52.264;6.154;2023-02-28T09:12:21;1.75;;;1.33;;
47021;SDS011;32779;52.264;6.154;2023-02-28T09:14:50;3.53;;;1.50;;
47021;SDS011;32779;52.264;6.154;2023-02-28T09:19:42;3.45;;;1.40;;
47021;SDS011;32779;52.264;6.154;2023-02-28T09:22:08;3.40;;;1.25;;
47021;SDS011;32779;52.264;6.154;2023-02-28T09:24:35;4.20;;;1.50;;
47021;SDS011;32779;52.264;6.154;2023-02-28T09:27:02;2.42;;;1.50;;
47021;SDS011;32779;52.264;6.154;2023-02-28T09:29:27;2.95;;;1.23;;
47021;SDS011;32779;52.264;6.154;2023-02-28T09:31:53;4.28;;;1.35;;
47021;SDS011;32779;52.264;6.154;2023-02-28T09:34:19;1.67;;;1.13;;
47021;SDS011;32779;52.264;6.154;2023-02-28T09:36:44;3.65;;;1.10;;
47021;SDS011;32779;52.264;6.154;2023-02-28T09:39:10;2.20;;;1.20;;
47021;SDS011;32779;52.264;6.154;2023-02-28T09:41:38;1.70;;;0.90;;
47021;SDS011;32779;52.264;6.154;2023-02-28T09:44:16;4.03;;;1.33;;
47021;SDS011;32779;52.264;6.154;2023-02-28T09:46:54;1.00;;;0.90;;
47021;SDS011;32779;52.264;6.154;2023-02-28T09:49:43;1.60;;;0.90;;
47021;SDS011;32779;52.264;6.154;2023-02-28T09:52:19;1.35;;;0.82;;
47021;SDS011;32779;52.264;6.154;2023-02-28T09:54:48;0.80;;;0.80;;
47021;SDS011;32779;52.264;6.154;2023-02-28T09:57:19;1.25;;;0.98;;
47021;SDS011;32779;52.264;6.154;2023-02-28T10:05:11;4.38;;;1.58;;
47021;SDS011;32779;52.264;6.154;2023-02-28T10:10:42;2.88;;;1.17;;
47021;SDS011;32779;52.264;6.154;2023-02-28T10:13:15;2.20;;;1.10;;
47021;SDS011;32779;52.264;6.154;2023-02-28T10:15:42;4.97;;;1.00;;
47021;SDS011;32779;52.264;6.154;2023-02-28T10:18:13;2.55;;;1.17;;
47021;SDS011;32779;52.264;6.154;2023-02-28T10:20:44;4.68;;;1.35;;
47021;SDS011;32779;52.264;6.154;2023-02-28T10:23:17;1.45;;;0.90;;
47021;SDS011;32779;52.264;6.154;2023-02-28T10:25:59;2.78;;;1.42;;
47021;SDS011;32779;52.264;6.154;2023-02-28T10:28:45;1.65;;;0.90;;
47021;SDS011;32779;52.264;6.154;2023-02-28T10:31:11;1.80;;;1.30;;
47021;SDS011;32779;52.264;6.154;2023-02-28T10:33:41;2.65;;;1.35;;
47021;SDS011;32779;52.264;6.154;2023-02-28T10:36:17;1.85;;;1.17;;
47021;SDS011;32779;52.264;6.154;2023-02-28T10:38:45;2.30;;;1.15;;
47021;SDS011;32779;52.264;6.154;2023-02-28T10:41:15;1.27;;;1.00;;
47021;SDS011;32779;52.264;6.154;2023-02-28T10:44:17;3.60;;;1.13;;
47021;SDS011;32779;52.264;6.154;2023-02-28T10:46:46;1.45;;;1.10;;
47021;SDS011;32779;52.264;6.154;2023-02-28T10:49:23;2.42;;;1.10;;
47021;SDS011;32779;52.264;6.154;2023-02-28T10:52:00;1.75;;;1.20;;
47021;SDS011;32779;52.264;6.154;2023-02-28T10:59:45;1.55;;;1.10;;
47021;SDS011;32779;52.264;6.154;2023-02-28T11:02:34;2.45;;;1.17;;
47021;SDS011;32779;52.264;6.154;2023-02-28T11:05:20;1.90;;;1.25;;
47021;SDS011;32779;52.264;6.154;2023-02-28T11:08:16;2.25;;;1.35;;
47021;SDS011;32779;52.264;6.154;2023-02-28T11:10:48;3.20;;;1.13;;
47021;SDS011;32779;52.264;6.154;2023-02-28T11:13:20;1.92;;;0.90;;
47021;SDS011;32779;52.264;6.154;2023-02-28T11:16:06;1.38;;;1.25;;
47021;SDS011;32779;52.264;6.154;2023-02-28T11:18:42;2.38;;;1.40;;
47021;SDS011;32779;52.264;6.154;2023-02-28T11:21:09;2.22;;;1.30;;
47021;SDS011;32779;52.264;6.154;2023-02-28T11:23:41;2.78;;;1.40;;
47021;SDS011;32779;52.264;6.154;2023-02-28T11:26:08;3.38;;;1.23;;
47021;SDS011;32779;52.264;6.154;2023-02-28T11:28:37;2.30;;;1.08;;
47021;SDS011;32779;52.264;6.154;2023-02-28T11:31:06;1.52;;;1.10;;
47021;SDS011;32779;52.264;6.154;2023-02-28T11:39:10;1.63;;;1.27;;
47021;SDS011;32779;52.264;6.154;2023-02-28T11:44:34;2.70;;;1.48;;
47021;SDS011;32779;52.264;6.154;2023-02-28T11:47:24;2.83;;;1.33;;
47021;SDS011;32779;52.264;6.154;2023-02-28T12:03:15;2.85;;;1.30;;
47021;SDS011;32779;52.264;6.154;2023-02-28T12:06:13;2.78;;;1.58;;
47021;SDS011;32779;52.264;6.154;2023-02-28T12:08:47;1.60;;;1.50;;
47021;SDS011;32779;52.264;6.154;2023-02-28T12:14:14;2.83;;;1.50;;
47021;SDS011;32779;52.264;6.154;2023-02-28T12:17:16;6.10;;;1.40;;
47021;SDS011;32779;52.264;6.154;2023-02-28T12:25:45;2.22;;;1.40;;
47021;SDS011;32779;52.264;6.154;2023-02-28T12:28:27;2.55;;;1.52;;
47021;SDS011;32779;52.264;6.154;2023-02-28T12:33:27;2.40;;;1.30;;
47021;SDS011;32779;52.264;6.154;2023-02-28T12:35:59;1.88;;;1.17;;
47021;SDS011;32779;52.264;6.154;2023-02-28T12:38:41;2.22;;;1.85;;
47021;SDS011;32779;52.264;6.154;2023-02-28T12:41:14;2.08;;;1.17;;
47021;SDS011;32779;52.264;6.154;2023-02-28T12:43:42;3.13;;;1.40;;
47021;SDS011;32779;52.264;6.154;2023-02-28T12:46:14;3.20;;;1.55;;
47021;SDS011;32779;52.264;6.154;2023-02-28T12:48:45;2.15;;;1.45;;
47021;SDS011;32779;52.264;6.154;2023-02-28T12:51:15;2.05;;;1.20;;
47021;SDS011;32779;52.264;6.154;2023-02-28T12:56:59;3.33;;;1.17;;
47021;SDS011;32779;52.264;6.154;2023-02-28T12:59:41;3.92;;;1.90;;
47021;SDS011;32779;52.264;6.154;2023-02-28T13:02:24;1.63;;;1.30;;
47021;SDS011;32779;52.264;6.154;2023-02-28T13:11:25;2.10;;;1.52;;
47021;SDS011;32779;52.264;6.154;2023-02-28T13:19:23;2.13;;;1.50;;
47021;SDS011;32779;52.264;6.154;2023-02-28T13:21:52;5.57;;;1.77;;
47021;SDS011;32779;52.264;6.154;2023-02-28T13:24:36;2.70;;;1.48;;
47021;SDS011;32779;52.264;6.154;2023-02-28T13:29:31;2.30;;;1.40;;
47021;SDS011;32779;52.264;6.154;2023-02-28T13:34:30;1.30;;;1.10;;
47021;SDS011;32779;52.264;6.154;2023-02-28T13:42:35;1.35;;;1.00;;
47021;SDS011;32779;52.264;6.154;2023-02-28T13:58:09;1.75;;;1.20;;
47021;SDS011;32779;52.264;6.154;2023-02-28T14:06:39;6.32;;;1.20;;
47021;SDS011;32779;52.264;6.154;2023-02-28T14:15:04;2.35;;;1.25;;
47021;SDS011;32779;52.264;6.154;2023-02-28T14:17:53;3.47;;;1.20;;
47021;SDS011;32779;52.264;6.154;2023-02-28T14:20:20;1.55;;;1.15;;
47021;SDS011;32779;52.264;6.154;2023-02-28T14:26:00;1.17;;;0.90;;
47021;SDS011;32779;52.264;6.154;2023-02-28T14:31:13;2.10;;;1.20;;
47021;SDS011;32779;52.264;6.154;2023-02-28T14:36:52;1.33;;;1.15;;
47021;SDS011;32779;52.264;6.154;2023-02-28T14:39:15;1.90;;;1.13;;
47021;SDS011;32779;52.264;6.154;2023-02-28T14:41:44;1.50;;;1.20;;
47021;SDS011;32779;52.264;6.154;2023-02-28T14:46:44;1.85;;;1.10;;
47021;SDS011;32779;52.264;6.154;2023-02-28T14:52:13;2.65;;;1.40;;
47021;SDS011;32779;52.264;6.154;2023-02-28T14:54:42;1.45;;;1.10;;
47021;SDS011;32779;52.264;6.154;2023-02-28T15:00:03;2.15;;;1.20;;
47021;SDS011;32779;52.264;6.154;2023-02-28T15:02:35;3.05;;;1.30;;
47021;SDS011;32779;52.264;6.154;2023-02-28T15:07:42;2.58;;;1.48;;
47021;SDS011;32779;52.264;6.154;2023-02-28T15:10:13;2.30;;;1.50;;
47021;SDS011;32779;52.264;6.154;2023-02-28T15:12:57;1.83;;;1.23;;
47021;SDS011;32779;52.264;6.154;2023-02-28T15:15:34;4.10;;;1.50;;
47021;SDS011;32779;52.264;6.154;2023-02-28T15:21:03;2.83;;;1.35;;
47021;SDS011;32779;52.264;6.154;2023-02-28T15:23:32;4.45;;;1.33;;
47021;SDS011;32779;52.264;6.154;2023-02-28T15:26:01;1.65;;;1.30;;
47021;SDS011;32779;52.264;6.154;2023-02-28T15:28:27;2.58;;;1.33;;
47021;SDS011;32779;52.264;6.154;2023-02-28T15:30:58;2.67;;;1.45;;
47021;SDS011;32779;52.264;6.154;2023-02-28T15:33:27;3.08;;;1.40;;
47021;SDS011;32779;52.264;6.154;2023-02-28T15:36:10;3.15;;;1.38;;
47021;SDS011;32779;52.264;6.154;2023-02-28T15:38:39;3.15;;;1.40;;
47021;SDS011;32779;52.264;6.154;2023-02-28T15:41:05;2.58;;;1.52;;
47021;SDS011;32779;52.264;6.154;2023-02-28T15:43:36;2.08;;;1.23;;
47021;SDS011;32779;52.264;6.154;2023-02-28T15:46:05;2.55;;;1.50;;
47021;SDS011;32779;52.264;6.154;2023-02-28T15:48:52;2.42;;;1.40;;
47021;SDS011;32779;52.264;6.154;2023-02-28T15:51:22;2.40;;;1.40;;
47021;SDS011;32779;52.264;6.154;2023-02-28T15:53:58;2.70;;;1.48;;
47021;SDS011;32779;52.264;6.154;2023-02-28T15:56:28;4.13;;;1.65;;
47021;SDS011;32779;52.264;6.154;2023-02-28T15:58:57;4.10;;;1.55;;
47021;SDS011;32779;52.264;6.154;2023-02-28T16:01:28;2.03;;;1.45;;
47021;SDS011;32779;52.264;6.154;2023-02-28T16:03:57;2.13;;;1.40;;
47021;SDS011;32779;52.264;6.154;2023-02-28T16:09:01;4.45;;;1.80;;
47021;SDS011;32779;52.264;6.154;2023-02-28T16:11:28;1.65;;;1.33;;
47021;SDS011;32779;52.264;6.154;2023-02-28T16:13:53;4.40;;;1.58;;
47021;SDS011;32779;52.264;6.154;2023-02-28T16:16:20;2.75;;;1.80;;
47021;SDS011;32779;52.264;6.154;2023-02-28T16:18:48;3.50;;;1.52;;
47021;SDS011;32779;52.264;6.154;2023-02-28T16:21:13;3.33;;;1.73;;
47021;SDS011;32779;52.264;6.154;2023-02-28T16:23:39;4.93;;;2.00;;
47021;SDS011;32779;52.264;6.154;2023-02-28T16:26:05;2.90;;;1.80;;
47021;SDS011;32779;52.264;6.154;2023-02-28T16:28:35;4.72;;;1.67;;
47021;SDS011;32779;52.264;6.154;2023-02-28T16:31:04;4.82;;;1.92;;
47021;SDS011;32779;52.264;6.154;2023-02-28T16:33:32;1.92;;;1.50;;
47021;SDS011;32779;52.264;6.154;2023-02-28T16:38:23;3.30;;;1.70;;
47021;SDS011;32779;52.264;6.154;2023-02-28T16:40:50;1.85;;;1.50;;
47021;SDS011;32779;52.264;6.154;2023-02-28T16:43:22;3.22;;;1.83;;
47021;SDS011;32779;52.264;6.154;2023-02-28T16:45:50;3.25;;;1.90;;
47021;SDS011;32779;52.264;6.154;2023-02-28T16:48:23;1.98;;;1.40;;
47021;SDS011;32779;52.264;6.154;2023-02-28T16:50:49;3.75;;;1.60;;
47021;SDS011;32779;52.264;6.154;2023-02-28T16:53:14;4.55;;;1.70;;
47021;SDS011;32779;52.264;6.154;2023-02-28T16:55:40;2.10;;;1.58;;
47021;SDS011;32779;52.264;6.154;2023-02-28T16:58:06;3.80;;;1.80;;
47021;SDS011;32779;52.264;6.154;2023-02-28T17:00:32;1.80;;;1.40;;
47021;SDS011;32779;52.264;6.154;2023-02-28T17:02:58;5.22;;;1.40;;
47021;SDS011;32779;52.264;6.154;2023-02-28T17:05:24;1.95;;;1.40;;
47021;SDS011;32779;52.264;6.154;2023-02-28T17:07:53;2.70;;;1.45;;
47021;SDS011;32779;52.264;6.154;2023-02-28T17:10:23;1.83;;;1.20;;
47021;SDS011;32779;52.264;6.154;2023-02-28T17:12:50;4.38;;;1.33;;
47021;SDS011;32779;52.264;6.154;2023-02-28T17:17:43;3.20;;;1.50;;
47021;SDS011;32779;52.264;6.154;2023-02-28T17:20:14;2.28;;;1.40;;
47021;SDS011;32779;52.264;6.154;2023-02-28T17:22:47;5.68;;;1.70;;
47021;SDS011;32779;52.264;6.154;2023-02-28T17:25:14;5.63;;;1.88;;
47021;SDS011;32779;52.264;6.154;2023-02-28T17:27:40;3.75;;;1.50;;
47021;SDS011;32779;52.264;6.154;2023-02-28T17:30:13;4.40;;;1.35;;
47021;SDS011;32779;52.264;6.154;2023-02-28T17:32:47;3.53;;;1.95;;
47021;SDS011;32779;52.264;6.154;2023-02-28T17:35:13;3.85;;;2.40;;
47021;SDS011;32779;52.264;6.154;2023-02-28T17:37:39;7.53;;;3.15;;
47021;SDS011;32779;52.264;6.154;2023-02-28T17:42:32;5.60;;;2.78;;
47021;SDS011;32779;52.264;6.154;2023-02-28T17:44:58;7.57;;;2.70;;
47021;SDS011;32779;52.264;6.154;2023-02-28T17:47:24;4.63;;;1.83;;
47021;SDS011;32779;52.264;6.154;2023-02-28T17:49:50;4.30;;;2.10;;
47021;SDS011;32779;52.264;6.154;2023-02-28T17:52:15;4.97;;;2.97;;
47021;SDS011;32779;52.264;6.154;2023-02-28T17:54:41;6.93;;;3.80;;
47021;SDS011;32779;52.264;6.154;2023-02-28T17:57:10;6.30;;;3.40;;
47021;SDS011;32779;52.264;6.154;2023-02-28T17:59:39;5.65;;;3.20;;
47021;SDS011;32779;52.264;6.154;2023-02-28T18:02:06;5.70;;;2.97;;
47021;SDS011;32779;52.264;6.154;2023-02-28T18:04:31;9.33;;;3.33;;
47021;SDS011;32779;52.264;6.154;2023-02-28T18:06:57;10.30;;;4.72;;
47021;SDS011;32779;52.264;6.154;2023-02-28T18:09:25;9.65;;;4.28;;
47021;SDS011;32779;52.264;6.154;2023-02-28T18:11:52;8.32;;;4.53;;
47021;SDS011;32779;52.264;6.154;2023-02-28T18:14:20;6.00;;;2.92;;
47021;SDS011;32779;52.264;6.154;2023-02-28T18:16:48;2.40;;;1.90;;
47021;SDS011;32779;52.264;6.154;2023-02-28T18:19:15;4.65;;;2.80;;